Latest Weather Observations for Green Cape

IDN60801

Issued at 7:03 am EDT Wednesday 10 February 2016 (issued every 30 minutes, with the page automatically refreshed every 10 minutes)

About weather observations | Map of weather stations | Latest weather observations for NSW | Other Formats
Station Details ID: 069137 Name: GREEN CAPE AWS Lat: -37.26 Lon: 150.05 Height: 19.4 m
Data from the previous 72 hours. | See also: Recent months at Green Cape
Date/Time
EDT
Temp
°C
App
Temp
°C
Dew
Point
Rel
Hum
%
Delta-T
°C
Wind Press
QNH
hPa
Press
MSL
hPa
Rain
since 9 am
mm
Dir
 
Spd
km/h
Gust
km/h
Spd
kts
Gust
kts
10/07:00am 19.7 17.9 16.9 84 1.7 N 22 28 12 15 1013.7 1013.6 0.0
10/06:30am 19.5 18.5 16.7 84 1.7 N 17 20 9 11 1013.9 1013.8 0.0
10/06:00am 20.0 17.6 17.4 85 1.6 N 26 32 14 17 1013.7 1013.6 0.0
10/05:30am 20.0 17.2 17.4 85 1.6 N 28 33 15 18 1013.5 1013.4 0.0
10/05:00am 20.0 17.3 17.6 86 1.5 N 28 33 15 18 1013.6 1013.5 0.0
10/04:30am 19.9 17.6 17.7 87 1.4 N 26 32 14 17 1013.7 1013.6 0.0
10/04:00am 19.9 18.8 17.7 87 1.4 N 20 30 11 16 1014.0 1013.9 0.0
10/03:30am 20.3 17.8 18.1 87 1.4 N 28 33 15 18 1014.0 1013.9 0.0
10/03:00am 20.4 17.9 18.0 86 1.5 N 28 33 15 18 1014.3 1014.2 0.0
10/02:30am 20.5 17.6 17.9 85 1.6 N 30 37 16 20 1014.8 1014.7 0.0
10/02:00am 20.8 16.6 18.0 84 1.7 N 37 43 20 23 1015.1 1015.0 0.0
10/01:30am 20.8 17.0 18.0 84 1.7 N 35 43 19 23 1015.6 1015.5 0.0
10/01:00am 20.7 17.8 17.9 84 1.7 N 30 37 16 20 1016.2 1016.1 0.0
10/12:30am 20.9 17.6 17.9 83 1.9 N 32 39 17 21 1016.6 1016.5 0.0
10/12:00am 21.3 18.4 17.9 81 2.1 N 30 35 16 19 1016.9 1016.8 0.0
 
Date/Time
EDT
Temp
°C
App
Temp
°C
Dew
Point
Rel
Hum
%
Delta-T
°C
Wind Press
QNH
hPa
Press
MSL
hPa
Rain
since 9 am
mm
Dir
 
Spd
km/h
Gust
km/h
Spd
kts
Gust
kts
09/11:30pm 21.4 17.4 17.6 79 2.3 N 35 39 19 21 1017.2 1017.1 0.0
09/11:00pm 21.6 18.1 17.8 79 2.4 N 33 39 18 21 1017.5 1017.4 0.0
09/10:30pm 21.6 18.2 17.6 78 2.5 N 32 37 17 20 1017.8 1017.7 0.0
09/10:00pm 21.7 18.7 17.7 78 2.5 NNE 30 33 16 18 1018.1 1018.0 0.0
09/09:30pm 21.6 18.8 17.4 77 2.6 NNE 28 32 15 17 1018.2 1018.1 0.0
09/09:00pm 21.6 18.8 17.2 76 2.7 NNE 28 32 15 17 1018.2 1018.1 0.0
09/08:30pm 21.8 19.0 17.4 76 2.7 NNE 28 32 15 17 1018.1 1018.0 0.0
09/08:00pm 22.1 19.8 17.5 75 2.8 NNE 26 30 14 16 1018.1 1018.0 0.0
09/07:30pm 22.9 21.5 18.0 74 3.1 NNE 22 26 12 14 1018.3 1018.2 0.0
09/07:00pm 23.0 21.5 17.7 72 3.3 NNE 22 26 12 14 1018.0 1017.9 0.0
09/06:30pm 23.6 22.6 18.0 71 3.5 NNE 20 22 11 12 1018.1 1018.0 0.0
09/06:00pm 23.7 22.7 17.9 70 3.6 NE 20 24 11 13 1018.2 1018.1 0.0
09/05:30pm 24.0 23.7 18.2 70 3.6 ENE 17 22 9 12 1018.5 1018.4 0.0
09/05:00pm 24.1 23.7 18.1 69 3.8 ENE 17 20 9 11 1018.8 1018.7 0.0
09/04:30pm 24.1 24.2 18.3 70 3.7 E 15 19 8 10 1019.1 1019.1 0.0
09/04:00pm 24.5 24.8 18.0 67 4.1 E 13 17 7 9 1019.4 1019.4 0.0
09/03:30pm 25.1 25.9 18.1 65 4.4 E 11 15 6 8 1019.8 1019.8 0.0
09/03:00pm 25.6 26.3 18.0 63 4.8 ESE 11 15 6 8 1020.0 1020.0 0.0
09/02:30pm 25.9 26.0 18.3 63 4.8 SE 15 17 8 9 1020.4 1020.4 0.0
09/02:00pm 26.3 26.7 18.2 61 5.1 SE 13 15 7 8 1020.8 1020.8 0.0
09/01:30pm 26.4 26.5 17.5 58 5.6 SSE 13 15 7 8 1021.0 1021.0 0.0
09/01:00pm 26.9 27.5 17.7 57 5.8 SSE 11 13 6 7 1021.2 1021.2 0.0
09/12:30pm 26.9 29.0 18.2 59 5.5 SSE 4 6 2 3 1021.4 1021.4 0.0
09/12:00pm 25.2 27.3 17.1 60 5.0 S 2 4 1 2 1021.6 1021.6 0.0
09/11:30am 24.2 26.2 17.0 64 4.4 SW 2 6 1 3 1021.7 1021.7 0.0
09/11:00am 23.1 23.9 16.4 66 4.1 WSW 7 11 4 6 1021.8 1021.8 0.0
09/10:30am 22.4 22.0 16.2 68 3.8 W 13 17 7 9 1021.9 1021.9 0.0
09/10:00am 21.3 19.6 15.8 71 3.3 W 19 20 10 11 1021.9 1021.9 0.0
09/09:30am 20.3 18.3 15.5 74 2.8 W 20 22 11 12 1021.9 1021.9 0.0
09/09:00am 19.7 17.7 15.4 76 2.5 W 20 24 11 13 1022.0 1022.0 0.0
09/08:30am 18.9 16.7 15.0 78 2.3 WNW 20 26 11 14 1021.8 1021.8 0.0
09/08:00am 18.1 15.9 15.0 82 1.8 W 20 24 11 13 1021.6 1021.6 0.0
09/07:30am 17.5 14.9 14.8 84 1.6 W 22 28 12 15 1021.5 1021.5 0.0
09/07:00am 17.2 13.8 14.7 85 1.4 W 26 30 14 16 1021.4 1021.4 0.0
09/06:30am 17.0 13.9 14.5 85 1.4 W 24 30 13 16 1021.1 1021.1 0.0
09/06:00am 17.6 13.5 15.0 85 1.5 WSW 30 35 16 19 1020.8 1020.8 0.0
09/05:30am 17.6 14.4 15.2 86 1.4 W 26 32 14 17 1020.5 1020.5 0.0
09/05:00am 17.7 14.4 15.0 84 1.6 W 26 32 14 17 1020.5 1020.5 0.0
09/04:30am 17.9 14.6 15.0 83 1.7 W 26 32 14 17 1020.3 1020.3 0.0
09/04:00am 18.0 14.3 15.1 83 1.7 WSW 28 32 15 17 1020.2 1020.2 0.0
09/03:30am 18.3 14.6 15.0 81 1.9 WSW 28 32 15 17 1020.3 1020.3 0.0
09/03:00am 18.6 14.9 14.9 79 2.1 WSW 28 32 15 17 1020.5 1020.5 0.0
09/02:30am 18.8 15.2 15.3 80 2.1 WSW 28 32 15 17 1020.5 1020.5 0.0
09/02:00am 18.9 15.4 15.4 80 2.1 WSW 28 32 15 17 1020.7 1020.7 0.0
09/01:30am 19.2 16.1 15.5 79 2.2 WSW 26 30 14 16 1020.9 1020.9 0.0
09/01:00am 19.4 16.7 15.5 78 2.3 WSW 24 28 13 15 1021.0 1021.0 0.0
09/12:30am 19.6 16.9 15.5 77 2.4 WSW 24 32 13 17 1021.0 1021.0 0.0
09/12:00am 19.9 17.3 16.0 78 2.3 WSW 24 26 13 14 1021.1 1021.1 0.0
 
Date/Time
EDT
Temp
°C
App
Temp
°C
Dew
Point
Rel
Hum
%
Delta-T
°C
Wind Press
QNH
hPa
Press
MSL
hPa
Rain
since 9 am
mm
Dir
 
Spd
km/h
Gust
km/h
Spd
kts
Gust
kts
08/11:30pm 19.9 18.7 16.2 79 2.2 WSW 17 20 9 11 1021.2 1021.2 0.0
08/11:00pm 19.8 17.9 16.6 82 1.9 SW 22 28 12 15 1021.2 1021.2 0.0
08/10:30pm 19.8 17.6 17.0 84 1.7 SSW 24 28 13 15 1021.1 1021.1 0.0
08/10:00pm 20.1 17.4 17.5 85 1.6 SSW 28 32 15 17 1020.7 1020.7 0.0
08/09:30pm 20.2 18.4 17.8 86 1.5 S 24 28 13 15 1020.5 1020.5 0.0
08/09:00pm 20.4 18.2 17.8 85 1.6 S 26 32 14 17 1020.1 1020.1 0.0
08/08:30pm 20.4 18.1 17.6 84 1.7 S 26 30 14 16 1019.7 1019.7 0.0
08/08:00pm 20.6 16.9 17.4 82 2.0 S 33 37 18 20 1019.5 1019.5 0.0
08/07:30pm 21.2 17.2 17.6 80 2.2 S 35 41 19 22 1019.2 1019.2 0.0
08/07:00pm 21.4 17.7 17.4 78 2.5 S 33 39 18 21 1018.8 1018.7 0.0
08/06:30pm 21.6 17.6 17.6 78 2.5 S 35 43 19 23 1018.6 1018.5 0.0
08/06:00pm 21.9 17.2 17.7 77 2.6 S 39 44 21 24 1018.3 1018.2 0.0
08/05:30pm 21.7 17.1 17.9 79 2.4 S 39 46 21 25 1018.4 1018.3 0.0
08/05:00pm 21.9 16.2 17.7 77 2.6 S 44 50 24 27 1018.5 1018.4 0.0
08/04:30pm 22.3 15.9 17.9 76 2.7 S 48 54 26 29 1018.4 1018.3 0.0
08/04:00pm 23.4 17.1 18.1 72 3.3 S 48 56 26 30 1018.3 1018.2 0.0
08/03:30pm 23.5 18.2 18.6 74 3.1 S 44 52 24 28 1018.5 1018.4 0.0
08/03:00pm 23.3 17.8 18.2 73 3.2 S 44 52 24 28 1018.5 1018.4 0.0
08/02:30pm 24.0 18.9 18.6 72 3.4 S 43 50 23 27 1018.5 1018.4 0.0
08/02:00pm 24.3 19.6 18.7 71 3.5 S 41 46 22 25 1018.6 1018.5 0.0
08/01:30pm 24.5 20.4 19.1 72 3.4 S 39 43 21 23 1018.7 1018.6 0.0
08/01:00pm 24.6 20.5 19.2 72 3.4 S 39 43 21 23 1018.8 1018.7 0.0
08/12:30pm 25.0 22.4 19.4 71 3.6 S 32 37 17 20 1019.1 1019.1 0.0
08/12:00pm 25.5 24.5 19.6 70 3.8 SSE 24 30 13 16 1019.5 1019.5 0.0
08/11:30am 25.5 25.2 19.2 68 4.0 SSE 19 20 10 11 1019.6 1019.6 0.0
08/11:00am 25.1 25.6 19.2 70 3.8 SSE 15 17 8 9 1019.6 1019.6 0.0
08/10:30am 24.6 26.8 20.3 77 2.8 SSE 9 11 5 6 1019.5 1019.5 0.0
08/10:00am 22.1 24.7 19.3 84 1.8 SW 4 6 2 3 1019.5 1019.5 0.0
08/09:30am 21.0 22.7 18.4 85 1.6 WSW 7 9 4 5 1019.3 1019.3 0.0
08/09:00am 20.3 21.5 18.2 88 1.3 W 9 11 5 6 1019.2 1019.2 0.0
08/08:30am 19.3 19.6 17.8 91 0.9 W 13 17 7 9 1019.0 1018.9 0.0
08/08:00am 18.5 18.1 17.2 92 0.8 W 15 17 8 9 1019.0 1018.9 0.0
08/07:30am 18.5 19.3 17.3 93 0.7 W 9 11 5 6 1018.7 1018.6 0.0
08/07:00am 18.4 19.5 17.2 93 0.7 WNW 7 9 4 5 1018.5 1018.4 0.0
08/06:30am 17.9 18.9 16.8 93 0.7 W 7 9 4 5 1018.3 1018.2 0.0
08/06:00am 17.8 18.9 16.7 93 0.7 WNW 6 7 3 4 1018.0 1017.9 0.0
08/05:30am 17.5 17.9 16.2 92 0.8 W 9 9 5 5 1017.9 1017.8 0.0
08/05:00am 17.6 18.0 16.3 92 0.8 W 9 11 5 6 1017.8 1017.7 0.0
08/04:30am 18.1 18.2 16.6 91 0.9 WNW 11 13 6 7 1017.7 1017.6 0.0
08/04:00am 18.9 20.2 17.2 90 1.0 NNW 6 9 3 5 1017.6 1017.5 0.0
08/03:30am 18.9 20.5 17.0 89 1.1 WNW 4 6 2 3 1017.8 1017.7 0.0
08/03:00am 19.9 21.0 18.0 89 1.2 N 9 13 5 7 1017.8 1017.7 0.0
08/02:30am 19.9 21.5 17.9 88 1.2 N 6 9 3 5 1018.0 1017.9 0.0
08/02:00am 20.2 21.0 18.1 88 1.3 N 11 13 6 7 1018.1 1018.0 0.0
08/01:30am 20.3 21.4 18.1 87 1.4 N 9 13 5 7 1018.4 1018.3 0.0
08/01:00am 20.3 21.8 18.1 87 1.4 NNW 7 11 4 6 1018.6 1018.5 0.0
08/12:30am 20.5 22.0 18.1 86 1.5 N 7 13 4 7 1018.5 1018.4 0.0
08/12:00am 20.8 22.0 18.2 85 1.6 NNW 9 17 5 9 1018.6 1018.5 0.0
 
Date/Time
EDT
Temp
°C
App
Temp
°C
Dew
Point
Rel
Hum
%
Delta-T
°C
Wind Press
QNH
hPa
Press
MSL
hPa
Rain
since 9 am
mm
Dir
 
Spd
km/h
Gust
km/h
Spd
kts
Gust
kts
07/11:30pm 20.8 21.5 18.0 84 1.7 N 11 15 6 8 1018.5 1018.4 0.0
07/11:00pm 21.2 22.4 18.2 83 1.9 N 9 11 5 6 1018.8 1018.7 0.0
07/10:30pm 21.6 22.1 18.4 82 2.0 N 13 19 7 10 1018.8 1018.7 0.0
07/10:00pm 22.0 21.5 18.6 81 2.1 N 19 22 10 12 1018.7 1018.6 0.0
07/09:30pm 22.1 21.4 18.3 79 2.4 N 19 22 10 12 1018.6 1018.5 0.0
07/09:00pm 22.1 21.3 17.9 77 2.6 N 19 22 10 12 1018.3 1018.2 0.0
07/08:30pm 22.2 21.1 17.8 76 2.7 N 20 22 11 12 1017.8 1017.7 0.0
07/08:00pm 22.5 21.3 17.6 74 3.0 N 20 22 11 12 1017.5 1017.4 0.0
07/07:30pm 22.9 21.8 17.8 73 3.2 N 20 24 11 13 1017.3 1017.2 0.0
07/07:00pm 23.4 22.5 17.8 71 3.5 N 19 22 10 12 1017.1 1017.0 0.0
07/06:30pm 24.2 23.2 17.9 68 3.9 NNE 20 24 11 13 1016.7 1016.6 0.0
07/06:00pm 24.7 23.4 18.2 67 4.1 NNE 22 24 12 13 1016.7 1016.6 0.0
07/05:30pm 24.9 24.0 18.1 66 4.3 NNE 20 26 11 14 1016.7 1016.6 0.0
07/05:00pm 25.1 23.9 18.3 66 4.3 NNE 22 24 12 13 1016.7 1016.6 0.0
07/04:30pm 25.3 24.0 18.2 64 4.5 NNE 22 24 12 13 1016.6 1016.5 0.0
07/04:00pm 25.9 25.2 18.6 64 4.6 NNE 20 26 11 14 1016.7 1016.6 0.0
07/03:30pm 26.1 25.2 18.2 61 5.0 NNE 20 22 11 12 1016.9 1016.8 0.0
07/03:00pm 26.3 25.7 18.4 61 5.0 NNE 19 20 10 11 1017.1 1017.0 0.0
07/02:30pm 25.9 25.0 18.3 63 4.8 NNE 20 26 11 14 1017.0 1016.9 0.0
07/02:00pm 25.7 24.5 18.4 64 4.6 NNE 22 26 12 14 1017.0 1016.9 0.0
07/01:30pm 25.1 23.3 17.8 64 4.6 NNE 24 28 13 15 1017.2 1017.1 0.0
07/01:00pm 24.9 22.6 17.6 64 4.6 NNE 26 28 14 15 1017.2 1017.1 0.0
07/12:30pm 24.6 23.3 18.1 67 4.1 NNE 22 28 12 15 1017.4 1017.3 0.0
07/12:00pm 24.3 23.4 18.2 68 3.8 NNE 20 26 11 14 1017.5 1017.4 0.0
07/11:30am 23.6 21.7 17.6 69 3.7 N 24 28 13 15 1017.8 1017.7 0.0
07/11:00am 23.2 21.5 17.2 69 3.7 N 22 26 12 14 1017.9 1017.8 0.0
07/10:30am 23.4 21.9 17.6 70 3.6 N 22 24 12 13 1017.8 1017.7 0.0
07/10:00am 22.5 20.7 17.0 71 3.4 N 22 26 12 14 1017.9 1017.8 0.0
07/09:30am 22.6 21.3 17.3 72 3.3 N 20 24 11 13 1017.9 1017.8 0.0
07/09:00am 22.0 20.1 16.7 72 3.2 N 22 24 12 13 1017.9 1017.8 0.0
07/08:30am 21.4 19.8 16.6 74 2.9 N 20 24 11 13 1018.0 1017.9 0.0
07/08:00am 20.4 18.9 16.4 78 2.4 N 19 20 10 11 1017.7 1017.6 0.0
07/07:30am 19.8 17.8 16.4 81 2.0 N 22 24 12 13 1017.5 1017.4 0.0

Other Formats:

Comma delimited format used in spreadsheet applications
http://www.bom.gov.au/fwo/IDN60801/IDN60801.94934.axf

JavaScript Object Notation format (JSON) in row-major order
http://www.bom.gov.au/fwo/IDN60801/IDN60801.94934.json